Aviation Digital Data Service (ADDS)

Output produced by METARs form (2127 UTC 16 February 2019)
found at http://www.aviationweather.gov/metar/data/
 
Forecast for: WPDL (DILLI ARPT/TIMOR, TP)
Text: TAF WPDL 161625Z 1618/1706 15005KT CAVOK
Forecast period: 1800 UTC 16 February 2019 to 0000 UTC 17 February 2019
Forecast type: FROM: standard forecast or significant change
Winds: from the SSE (150 degrees) at 6 MPH (5 knots; 2.6 m/s)
Visibility: 6 or more miles 10+ km)
Ceiling: unknown
Clouds: missing
Weather: NSW  (no significant weather)
Text: FM170000 32010KT 9999 SCT040
Forecast period: 0000 to 0600 UTC 17 February 2019
Forecast type: FROM: standard forecast or significant change
Winds: from the NW (320 degrees) at 12 MPH (10 knots; 5.1 m/s)
Visibility: 6 or more miles 10+ km)
Ceiling: at least 12,000 feet AGL
Clouds: scattered clouds at 4000 feet AGL
Weather: no significant weather forecast for this period